METAR Data
IDs: Format: Raw Decoded Include TAF

Data at: 0005 UTC 26 Oct 2021

PAKP 252356Z AUTO 20011KT 9SM -SN FEW025 BKN044 OVC080 M03/M04 A2910 RMK AO2 SLP895 P0000 60000 T10331044 11033 21067 53001 FZRANO
PAKP 252346Z AUTO 20010KT 9SM -SN FEW025 BKN035 OVC075 M03/M04 A2909 RMK AO2 P0000 FZRANO
PAKP 252256Z AUTO 18009KT 9SM -SN OVC029 M03/M04 A2909 RMK AO2 SNB15 SLP895 P0000 T10331044 FZRANO
PAKP 252156Z AUTO 19006KT 9SM SCT005 BKN029 OVC039 M03/M04 A2909 RMK AO2 SNB07E52 SLP896 P0000 T10331044 FZRANO
PAKP 252121Z AUTO 19006KT 9SM -SN SCT005 BKN027 OVC035 M04/M06 A2909 RMK AO2 SNB07 P0000 FZRANO
PAKP 252056Z AUTO 00000KT 10SM OVC007 M04/M06 A2909 RMK AO2 SNB20E35 SLP897 P0000 60000 T10441056 58003 FZRANO
PAKP 252037Z AUTO 00000KT 9SM OVC009 M04/M06 A2910 RMK AO2 SNB20E35 CIG 007V011 P0000 FZRANO
PAKP 251956Z AUTO 00000KT 10SM OVC013 M05/M07 A2910 RMK AO2 SLP898 T10501067 FZRANO
PAKP 251947Z AUTO 00000KT 10SM BKN013 OVC039 M05/M07 A2910 RMK AO2 FZRANO
PAKP 251856Z AUTO 02003KT 10SM FEW004 BKN037 OVC075 M07/M08 A2910 RMK AO2 SLP901 T10671078 FZRANO
PAKP 251834Z AUTO 03003KT 10SM FEW004 BKN060 OVC075 M07/M08 A2910 RMK AO2 FZRANO
PAKP 251756Z AUTO 03004KT 10SM OVC043 M06/M07 A2910 RMK AO2 SNE43 SLP901 P0000 60000 T10611072 11039 21061 58012 FZRANO
PAKP 251656Z AUTO 36003KT 3SM -SN BR BKN032 OVC041 M06/M07 A2911 RMK AO2 SLP904 P0000 T10561067 FZRANO
PAKP 251609Z AUTO 04004KT 7SM -SN SCT027 BKN044 OVC050 M06/M07 A2912 RMK AO2 P0000 FZRANO
PAKP 251556Z AUTO 03003KT 3SM -SN BR BKN027 OVC039 M06/M07 A2913 RMK AO2 SLP910 P0000 T10611072 FZRANO
PAKP 251544Z AUTO 03004KT 2 1/2SM -SN BR BKN027 OVC033 M06/M07 A2913 RMK AO2 VIS 2V3 P0000 FZRANO
PAKP 251521Z AUTO 36004KT 3SM -SN BR OVC030 M06/M07 A2913 RMK AO2 P0000 FZRANO
PAKP 251508Z AUTO 01005KT 2 1/2SM -SN BR BKN026 OVC030 M05/M07 A2914 RMK AO2 P0000 FZRANO
PAKP 251456Z AUTO 03006KT 3SM -SN BR SCT018 OVC024 M05/M06 A2914 RMK AO2 SLP912 P0000 60000 T10501061 56008 FZRANO
PAKP 251452Z AUTO 03006KT 3SM -SN BR SCT018 OVC024 M05/M06 A2914 RMK AO2 P0000 FZRANO
PAKP 251356Z AUTO 05005KT 2 1/2SM -SN BR BKN018 OVC023 M04/M06 A2915 RMK AO2 SLP914 P0000 T10441056 FZRANO
PAKP 251303Z AUTO 02006KT 3SM -SN BR OVC019 M04/M06 A2916 RMK AO2 P0000 FZRANO
PAKP 251256Z AUTO 03006KT 2 1/2SM -SN BR OVC017 M04/M06 A2916 RMK AO2 SLP919 P0000 T10441056 FZRANO
PAKP 251244Z AUTO 03006KT 2 1/2SM -SN BR OVC017 M04/M05 A2917 RMK AO2 P0000 FZRANO
PAKP 251227Z AUTO 02007KT 1 3/4SM -SN BR OVC017 M04/M05 A2917 RMK AO2 P0000 FZRANO
PAKP 251156Z AUTO 01006KT 2SM -SN BR OVC019 M04/M05 A2918 RMK AO2 SLP924 P0000 60000 T10391050 11039 21044 57014 FZRANO
PAKP 251125Z AUTO 36005KT 2 1/2SM -SN BR BKN019 OVC028 M04/M06 A2918 RMK AO2 P0000 FZRANO
PAKP 251111Z AUTO 01006KT 6SM -SN BR SCT024 BKN029 OVC043 M04/M06 A2919 RMK AO2 P0000 FZRANO
PAKP 251056Z AUTO 03003KT 9SM -SN SCT033 BKN043 OVC050 M04/M06 A2919 RMK AO2 SNB26 SLP930 P0000 T10441056 FZRANO
PAKP 250956Z AUTO 03004KT 10SM OVC045 M04/M06 A2920 RMK AO2 SLP933 T10441056 FZRANO
PAKP 250856Z AUTO 00000KT 10SM OVC045 M04/M06 A2922 RMK AO2 SLP941 T10441061 410391083 56012 FZRANO
PAKP 250756Z AUTO 24003KT 10SM OVC045 M04/M06 A2923 RMK AO2 SLP945 T10441056 FZRANO
PAKP 250656Z AUTO 20003KT 10SM OVC045 M04/M06 A2924 RMK AO2 SLP950 T10441056 FZRANO
PAKP 250556Z AUTO 20007KT 10SM OVC045 M04/M06 A2926 RMK AO2 SLP955 T10441061 11039 21044 58013 FZRANO
PAKP 250456Z AUTO 17008KT 10SM OVC043 M04/M06 A2927 RMK AO2 SLP961 T10391056 FZRANO
PAKP 250356Z AUTO 19008KT 10SM OVC043 M04/M06 A2929 RMK AO2 SLP965 T10441061 FZRANO
PAKP 250256Z AUTO 19008KT 10SM OVC043 M04/M06 A2930 RMK AO2 SLP969 T10441061 56012 FZRANO
PAKP 250156Z AUTO 22003KT 10SM OVC041 M04/M06 A2931 RMK AO2 SLP973 T10391061 FZRANO
PAKP 250056Z AUTO 18008KT 10SM OVC043 M04/M06 A2931 RMK AO2 SLP975 T10391061 FZRANO
PAKP 250042Z AUTO 17008KT 10SM SCT027 OVC043 M04/M06 A2932 RMK AO2 FZRANO
PAKP 250021Z AUTO 18008KT 10SM BKN027 OVC045 M04/M06 A2932 RMK AO2 FZRANO
PAKP 250008Z AUTO 16007KT 10SM SCT027 OVC045 M04/M06 A2933 RMK AO2 FZRANO
PAKP 242356Z AUTO 17006KT 10SM BKN027 OVC047 M04/M06 A2933 RMK AO2 SLP982 T10441061 11039 21072 56006 FZRANO
PAKP 242324Z AUTO 17011KT 10SM BKN025 OVC047 M04/M06 A2933 RMK AO2 FZRANO
PAKP 242256Z AUTO 17011KT 10SM SCT025 OVC049 M04/M07 A2934 RMK AO2 SLP985 T10391067 FZRANO
PAKP 242251Z AUTO 18011KT 10SM SCT025 OVC049 M04/M07 A2934 RMK AO2 FZRANO
PAKP 242156Z AUTO 19010KT 10SM BKN027 OVC049 M04/M07 A2935 RMK AO2 SLP988 T10391067 FZRANO
PAKP 242056Z AUTO 18009KT 10SM BKN026 BKN040 OVC048 M04/M07 A2935 RMK AO2 SLP989 T10441072 56005 FZRANO
PAKP 242027Z AUTO 17009KT 10SM BKN026 OVC040 M05/M08 A2935 RMK AO2 FZRANO
PAKP 241956Z AUTO 19007KT 10SM SCT028 BKN038 OVC048 M06/M08 A2936 RMK AO2 SLP991 T10561078 FZRANO
PAKP 241856Z AUTO 23003KT 10SM OVC028 M07/M09 A2936 RMK AO2 SLP993 T10671089 FZRANO
PAKP 241835Z AUTO 21004KT 10SM OVC028 M07/M09 A2936 RMK AO2 FZRANO
PAKP 241756Z AUTO 00000KT 10SM BKN033 OVC041 M07/M09 A2937 RMK AO2 SLP997 60000 T10721089 11072 21078 55002 FZRANO
PAKP 241656Z AUTO 00000KT 9SM OVC033 M07/M09 A2936 RMK AO2 SNE56 SLP996 P0000 T10721094 FZRANO
PAKP 241556Z AUTO 00000KT 9SM -SN OVC035 M07/M09 A2937 RMK AO2 SNB51 SLP998 P0000 T10721094 FZRANO
PAKP 241456Z AUTO 02003KT 10SM OVC033 M07/M09 A2937 RMK AO2 SLP999 T10721094 53006 FZRANO
PAKP 241356Z AUTO 00000KT 10SM OVC035 M08/M09 A2936 RMK AO2 SLP996 T10781094 FZRANO
PAKP 241256Z AUTO 03004KT 10SM OVC035 M08/M09 A2935 RMK AO2 SLP993 T10781094 FZRANO